RJOP  Komatsujima Ab  Airport

Komatsujima AB, Japan

Add Bookmark
Status
Operational
Latitude Longitude
34° 0' 0" N 134° 37' 48" E
34.000000 134.630005
Local (DST + 9) UTC (GMT + 9)
Mar 28, 2015 02:12 Mar 28, 2015 05:12
Sunrise-Sunset Local UTC
Begin Civil Twilight 05:28 20:28
Sunrise 05:53 20:53
Sunset 06:19 09:19
End Civil Twilight 06:44 09:44

Current Weather

METAR Observed VFR
RJOP 270955Z 23004KT 170V260 9999 FEW030 BKN230 13/06 Q1024 Fri, Mar 27, 2015 @ 09:55 UTC
(19 Hours, 17 Minutes ago)
Visual Flight Rules
Wind Visibility Clouds Conditions
230° at 4 knots (7 kph) 10 km or more
  • Few at 3,000' AGL
  • Broken at 23,000' AGL
  • No significant weather
Temperatures Readings Precipitation
Current Temp 13°C (55°F)
Dewpoint 6°C (43°F)
Humidity 63%
Altimeter 30.24"Hg
Sea Level Pressure 1024mb
Field Elevation 19.69'
None Recorded

Additional weather within a 92.6km radius of RJOP

Map ICAO Location
RJOT 61.3km W (293°)
RJBB 73.7km N (050°)
RJBD 77.4km E (119°)
RJBE 88.9km N (038°)

24 Hour Weather History

Loading
-

24 Hour Weather Graphs

Loading
-

CheckWX.com is intended as a tool to help pilots better visualize weather data. It is not intended as a substitute for an official weather briefing obtained from a Flight Service Station. CheckWX.com does not meet the FAA requirements for an official pre-flight weather briefing. Therefore, it's important that pilots still call and obtain an official FSS pre-flight weather briefing.